Time;durP1;ratioP1;P1;durP2;ratioP2;P2;SDS_P1;SDS_P2;PMS_P1;PMS_P2;Temp;Humidity;BMP_temperature;BMP_pressure;BME280_temperature;BME280_humidity;BME280_pressure;Samples;Min_cycle;Max_cycle;Signal;HPM_P1;HPM_P2
2023/03/15 00:01:56;;;;;;;7.45;1.80;;;0.00;97.70;;;;;;4989053;28;20585;-86
2023/03/15 00:04:23;;;;;;;4.65;1.73;;;0.00;97.80;;;;;;4983799;28;20113;-83
2023/03/15 00:06:49;;;;;;;6.53;2.10;;;0.00;97.90;;;;;;4981805;28;20030;-86
2023/03/15 00:09:15;;;;;;;11.27;2.47;;;0.10;97.90;;;;;;5000008;28;20037;-86
2023/03/15 00:11:40;;;;;;;10.80;3.42;;;0.10;97.90;;;;;;4989593;28;20113;-86
2023/03/15 00:14:06;;;;;;;16.15;3.05;;;0.10;97.90;;;;;;4992130;28;20069;-84
2023/03/15 00:16:31;;;;;;;17.58;3.75;;;0.00;97.90;;;;;;4984170;28;20046;-83
2023/03/15 00:18:57;;;;;;;13.07;3.10;;;0.00;97.90;;;;;;4992337;28;20037;-87
2023/03/15 00:21:23;;;;;;;8.90;2.70;;;0.00;97.90;;;;;;4987377;28;20035;-81
2023/03/15 00:23:48;;;;;;;12.63;3.38;;;0.00;97.90;;;;;;4981939;28;20030;-84
2023/03/15 00:26:14;;;;;;;11.68;3.45;;;0.00;98.00;;;;;;4990351;28;20081;-87
2023/03/15 00:28:40;;;;;;;11.45;3.75;;;0.00;97.90;;;;;;4992162;28;20093;-86
2023/03/15 00:31:21;;;;;;;8.20;3.58;;;0.10;98.00;;;;;;4987935;28;20442;-85
2023/03/15 00:33:47;;;;;;;11.20;3.55;;;0.10;97.90;;;;;;4990979;28;20379;-87
2023/03/15 00:36:14;;;;;;;11.90;2.90;;;0.30;97.60;;;;;;4982381;28;20038;-86
2023/03/15 00:38:42;;;;;;;16.52;3.22;;;0.30;97.30;;;;;;4975834;28;20027;-87
2023/03/15 00:41:14;;;;;;;7.38;2.75;;;0.40;97.20;;;;;;4985961;28;20096;-83
2023/03/15 00:43:39;;;;;;;11.10;3.05;;;0.40;97.70;;;;;;5002925;28;20538;-85
2023/03/15 00:46:05;;;;;;;16.08;3.05;;;0.40;97.80;;;;;;4994642;28;20134;-86
2023/03/15 00:48:31;;;;;;;12.57;3.53;;;0.40;98.00;;;;;;4984253;28;20038;-83
2023/03/15 00:51:05;;;;;;;14.25;3.38;;;0.40;98.20;;;;;;4984802;28;20117;-85
2023/03/15 00:53:31;;;;;;;13.20;3.60;;;0.40;98.30;;;;;;4993409;28;20050;-85
2023/03/15 00:55:57;;;;;;;10.77;3.83;;;0.40;98.30;;;;;;4990865;28;20038;-84
2023/03/15 00:58:22;;;;;;;11.95;3.85;;;0.40;98.40;;;;;;4989451;28;20030;-84
2023/03/15 01:00:48;;;;;;;8.10;3.28;;;0.40;98.40;;;;;;4989290;28;20066;-84
2023/03/15 01:03:13;;;;;;;12.48;3.38;;;0.40;98.40;;;;;;4993551;28;20076;-85
2023/03/15 01:05:39;;;;;;;12.50;4.05;;;0.40;98.40;;;;;;4994332;28;20081;-85
2023/03/15 01:08:05;;;;;;;16.98;3.60;;;0.40;98.40;;;;;;4993667;28;20532;-84
2023/03/15 01:10:33;;;;;;;6.35;3.17;;;0.40;98.40;;;;;;4994620;28;20042;-85
2023/03/15 01:12:58;;;;;;;11.95;3.47;;;0.40;98.50;;;;;;4992104;28;20432;-84
2023/03/15 01:15:24;;;;;;;12.80;3.90;;;0.40;98.50;;;;;;4975285;28;20114;-86
2023/03/15 01:17:49;;;;;;;9.52;3.58;;;0.40;98.50;;;;;;5008538;28;20030;-75
2023/03/15 01:20:15;;;;;;;9.57;4.28;;;0.40;98.50;;;;;;5017795;28;20015;-75
2023/03/15 01:22:40;;;;;;;7.43;3.10;;;0.40;98.60;;;;;;5000842;28;20057;-74
2023/03/15 01:25:08;;;;;;;14.02;3.97;;;0.40;98.60;;;;;;5019146;28;20057;-82
2023/03/15 01:27:33;;;;;;;11.35;3.28;;;0.40;98.60;;;;;;5004608;28;20367;-85
2023/03/15 01:29:59;;;;;;;14.60;4.07;;;0.40;98.60;;;;;;4997966;28;20031;-85
2023/03/15 01:32:25;;;;;;;10.52;3.65;;;0.40;98.60;;;;;;4986291;28;20034;-84
2023/03/15 01:34:50;;;;;;;12.90;3.47;;;0.40;98.60;;;;;;4989844;28;20053;-82
2023/03/15 01:37:16;;;;;;;7.93;3.35;;;0.40;98.70;;;;;;4991724;28;20030;-78
2023/03/15 01:39:41;;;;;;;17.23;4.20;;;0.40;98.80;;;;;;4992463;28;20045;-83
2023/03/15 01:42:08;;;;;;;16.13;4.15;;;0.40;98.80;;;;;;4982109;28;20030;-81
2023/03/15 01:44:54;;;;;;;15.95;3.83;;;0.40;98.80;;;;;;4990905;28;20046;-85
2023/03/15 01:47:20;;;;;;;13.20;4.72;;;0.40;98.80;;;;;;4985991;28;20042;-84
2023/03/15 01:49:50;;;;;;;11.13;3.78;;;0.40;98.80;;;;;;4989429;28;20034;-78
2023/03/15 01:52:23;;;;;;;13.02;3.67;;;0.40;98.80;;;;;;4989122;28;20049;-84
2023/03/15 01:54:53;;;;;;;11.35;4.00;;;0.40;98.90;;;;;;4991706;28;20035;-83
2023/03/15 01:57:25;;;;;;;13.23;4.10;;;0.40;98.90;;;;;;4990685;28;20044;-85
2023/03/15 01:59:57;;;;;;;7.15;3.13;;;0.40;99.00;;;;;;4993034;28;20039;-85
2023/03/15 02:02:24;;;;;;;12.85;3.42;;;0.40;99.10;;;;;;4990797;28;20034;-86
2023/03/15 02:05:08;;;;;;;17.13;4.05;;;0.40;99.10;;;;;;4994929;28;20026;-82
2023/03/15 02:07:37;;;;;;;13.15;3.83;;;0.40;99.20;;;;;;4991025;28;20034;-78
2023/03/15 02:10:06;;;;;;;16.95;4.00;;;0.30;99.20;;;;;;4993237;28;20038;-80
2023/03/15 02:12:37;;;;;;;11.50;4.68;;;0.40;99.20;;;;;;4990223;28;20065;-85
2023/03/15 02:15:06;;;;;;;10.77;4.45;;;0.30;99.20;;;;;;4974627;28;20026;-79
2023/03/15 02:17:36;;;;;;;12.90;4.43;;;0.30;99.30;;;;;;4987158;28;20042;-84
2023/03/15 02:20:26;;;;;;;15.50;4.72;;;0.40;99.30;;;;;;4987920;28;20437;-82
2023/03/15 02:22:59;;;;;;;15.05;4.32;;;0.30;99.30;;;;;;4987804;28;20082;-82
2023/03/15 02:25:41;;;;;;;12.00;4.15;;;0.30;99.30;;;;;;4999670;28;20027;-80
2023/03/15 02:28:10;;;;;;;12.82;4.53;;;0.30;99.30;;;;;;4992378;28;20038;-86
2023/03/15 02:30:35;;;;;;;16.83;5.18;;;0.30;99.30;;;;;;4992093;28;20065;-86
2023/03/15 02:33:05;;;;;;;18.02;4.05;;;0.30;99.30;;;;;;4991575;28;20077;-81
2023/03/15 02:35:32;;;;;;;11.35;4.35;;;0.30;99.30;;;;;;4988333;28;20165;-82
2023/03/15 02:37:58;;;;;;;16.05;4.30;;;0.30;99.30;;;;;;4988235;28;20073;-82
2023/03/15 02:40:26;;;;;;;11.95;3.63;;;0.30;99.30;;;;;;4991217;28;20483;-84
2023/03/15 02:42:56;;;;;;;17.50;3.83;;;0.20;99.30;;;;;;4988597;28;20529;-86
2023/03/15 02:45:22;;;;;;;15.75;4.28;;;0.20;99.30;;;;;;4988683;28;20096;-84
2023/03/15 02:47:48;;;;;;;12.05;3.72;;;0.10;99.30;;;;;;4968146;28;20050;-81
2023/03/15 02:50:14;;;;;;;11.40;3.33;;;0.10;99.30;;;;;;4966616;28;20387;-86
2023/03/15 02:52:39;;;;;;;10.90;3.10;;;0.00;99.30;;;;;;4955954;28;20034;-82
2023/03/15 02:55:06;;;;;;;13.55;3.33;;;0.00;99.20;;;;;;4966423;28;20039;-83
2023/03/15 02:57:31;;;;;;;14.35;3.38;;;0.00;99.30;;;;;;4967611;28;20049;-82
2023/03/15 02:59:58;;;;;;;18.00;3.47;;;0.00;99.30;;;;;;4970038;28;20387;-85
2023/03/15 03:02:23;;;;;;;10.93;3.30;;;0.00;99.40;;;;;;4968176;28;20103;-86
2023/03/15 03:04:51;;;;;;;9.57;2.83;;;-3276.70;99.30;;;;;;4969284;28;20036;-83
2023/03/15 03:07:17;;;;;;;10.63;3.45;;;-3276.70;99.40;;;;;;4972252;28;20029;-87
2023/03/15 03:09:43;;;;;;;13.20;3.42;;;-3276.70;99.40;;;;;;4973429;28;20034;-86
2023/03/15 03:12:09;;;;;;;10.73;3.40;;;-3276.60;99.40;;;;;;4969072;28;20491;-87
2023/03/15 03:14:34;;;;;;;14.35;3.00;;;-3276.60;99.40;;;;;;4970098;28;20035;-87
2023/03/15 03:17:00;;;;;;;10.93;3.25;;;-3276.70;99.50;;;;;;4970159;28;20030;-81
2023/03/15 03:19:26;;;;;;;12.55;3.25;;;-3276.70;99.50;;;;;;4972302;28;20039;-86
2023/03/15 03:21:52;;;;;;;16.80;3.53;;;-3276.70;99.50;;;;;;4969315;28;20081;-85
2023/03/15 03:24:25;;;;;;;11.25;3.72;;;0.00;99.60;;;;;;5072363;27;20898;-84
2023/03/15 03:26:50;;;;;;;12.18;3.15;;;0.10;99.60;;;;;;5065669;28;20417;-85
2023/03/15 03:29:16;;;;;;;9.77;3.47;;;0.20;99.30;;;;;;5065856;28;20097;-84
2023/03/15 03:31:42;;;;;;;11.90;3.45;;;0.30;99.20;;;;;;5064637;28;20583;-84
2023/03/15 03:34:09;;;;;;;19.35;3.90;;;0.40;99.10;;;;;;5067209;28;20507;-86
2023/03/15 03:36:35;;;;;;;13.05;4.13;;;0.40;98.90;;;;;;5062389;28;20035;-84
2023/03/15 03:39:01;;;;;;;8.90;3.15;;;0.40;98.90;;;;;;5063583;28;20037;-88
2023/03/15 03:41:26;;;;;;;11.95;3.58;;;0.40;98.80;;;;;;5064676;28;20381;-86
2023/03/15 03:43:52;;;;;;;10.50;3.25;;;0.40;98.80;;;;;;5066858;28;20358;-87
2023/03/15 03:46:17;;;;;;;15.25;3.80;;;0.50;98.70;;;;;;5066885;28;20040;-87
2023/03/15 03:48:43;;;;;;;7.93;3.72;;;0.50;98.60;;;;;;5059367;28;20071;-88
2023/03/15 03:51:08;;;;;;;16.55;3.92;;;0.50;98.60;;;;;;5068340;28;20037;-87
2023/03/15 03:53:34;;;;;;;15.25;3.88;;;0.50;98.50;;;;;;5066230;28;20101;-86
2023/03/15 03:56:02;;;;;;;12.48;3.63;;;0.60;98.60;;;;;;5066829;28;20064;-88
2023/03/15 03:58:28;;;;;;;10.68;3.47;;;0.50;98.40;;;;;;5066613;28;20024;-86
2023/03/15 04:00:53;;;;;;;14.68;3.92;;;0.50;98.40;;;;;;5065581;28;20504;-88
2023/03/15 04:03:26;;;;;;;15.18;4.20;;;0.60;98.40;;;;;;5061272;28;20158;-90
2023/03/15 04:05:55;;;;;;;15.20;4.20;;;0.50;98.40;;;;;;5063148;28;20040;-85
2023/03/15 04:08:22;;;;;;;14.27;4.57;;;0.60;98.50;;;;;;5060446;28;20178;-81
2023/03/15 04:10:52;;;;;;;12.77;3.60;;;0.60;98.50;;;;;;5065939;28;20044;-88
2023/03/15 04:13:18;;;;;;;10.75;3.90;;;0.60;98.50;;;;;;5062166;28;20085;-88
2023/03/15 04:15:43;;;;;;;14.40;3.65;;;0.60;98.50;;;;;;5068169;28;20028;-87
2023/03/15 04:18:09;;;;;;;17.73;4.35;;;0.60;98.50;;;;;;5056539;28;20033;-87
2023/03/15 04:20:35;;;;;;;14.93;3.78;;;0.60;98.50;;;;;;5064764;28;20389;-88
2023/03/15 04:23:00;;;;;;;14.63;3.80;;;0.60;98.50;;;;;;5064282;28;20133;-88
2023/03/15 04:25:26;;;;;;;7.47;3.58;;;0.60;98.50;;;;;;5068274;28;20025;-89
2023/03/15 04:28:01;;;;;;;18.33;4.18;;;0.60;98.50;;;;;;5064752;28;20670;-82
2023/03/15 04:30:28;;;;;;;11.43;4.18;;;0.60;98.50;;;;;;5074070;28;20098;-87
2023/03/15 04:32:57;;;;;;;6.60;3.08;;;0.50;98.60;;;;;;5058891;28;20409;-83
2023/03/15 04:35:27;;;;;;;13.43;4.32;;;0.50;98.70;;;;;;5044996;28;20021;-85
2023/03/15 04:37:53;;;;;;;8.48;2.88;;;0.40;98.80;;;;;;5051026;28;20043;-85
2023/03/15 04:40:19;;;;;;;11.60;3.60;;;0.40;98.90;;;;;;5050993;28;20025;-85
2023/03/15 04:42:44;;;;;;;14.40;4.10;;;0.40;99.00;;;;;;5049937;28;20040;-84
2023/03/15 04:45:10;;;;;;;9.80;3.60;;;0.50;99.10;;;;;;5051873;28;20358;-86
2023/03/15 04:47:36;;;;;;;11.50;3.60;;;0.40;99.10;;;;;;5051007;28;20071;-85
2023/03/15 04:50:02;;;;;;;9.40;4.00;;;0.40;99.10;;;;;;5043302;28;20037;-83
2023/03/15 04:52:27;;;;;;;9.68;3.65;;;0.40;99.20;;;;;;5050288;28;20032;-86
2023/03/15 04:54:53;;;;;;;11.05;4.28;;;0.30;99.10;;;;;;5051288;28;20033;-83
2023/03/15 04:57:18;;;;;;;17.63;3.92;;;0.20;99.10;;;;;;5050610;28;20531;-87
2023/03/15 04:59:43;;;;;;;11.95;4.18;;;0.20;99.10;;;;;;5051683;28;20028;-76
2023/03/15 05:02:09;;;;;;;10.63;4.20;;;0.10;99.20;;;;;;5049774;28;20033;-87
2023/03/15 05:04:34;;;;;;;13.60;3.85;;;0.10;99.30;;;;;;5051565;28;20150;-85
2023/03/15 05:07:00;;;;;;;12.80;4.03;;;0.10;99.30;;;;;;5050530;28;20480;-86
2023/03/15 05:09:25;;;;;;;17.58;4.00;;;0.10;99.50;;;;;;5053216;28;20037;-87
2023/03/15 05:11:51;;;;;;;10.48;4.00;;;0.20;99.50;;;;;;5051878;28;20035;-87
2023/03/15 05:14:16;;;;;;;10.02;3.58;;;0.20;99.60;;;;;;5047644;28;20045;-84
2023/03/15 05:16:42;;;;;;;15.85;4.07;;;0.30;99.60;;;;;;5052350;28;20038;-82
2023/03/15 05:19:08;;;;;;;12.27;4.05;;;0.30;99.60;;;;;;5052640;28;20121;-86
2023/03/15 05:21:33;;;;;;;10.65;4.20;;;0.30;99.60;;;;;;5046384;28;20032;-86
2023/03/15 05:23:59;;;;;;;9.35;4.18;;;0.30;99.60;;;;;;5053830;28;20393;-86
2023/03/15 05:26:24;;;;;;;13.05;4.63;;;0.40;99.60;;;;;;5052541;28;20075;-86
2023/03/15 05:28:51;;;;;;;15.15;4.82;;;0.40;99.60;;;;;;5049109;28;20098;-83
2023/03/15 05:31:17;;;;;;;14.48;3.80;;;0.40;99.60;;;;;;5041812;28;20024;-73
2023/03/15 05:33:45;;;;;;;14.68;4.13;;;0.30;99.50;;;;;;5042492;28;20044;-76
2023/03/15 05:36:14;;;;;;;15.27;4.70;;;0.20;99.40;;;;;;5049289;28;20025;-76
2023/03/15 05:38:40;;;;;;;17.55;5.28;;;0.20;99.40;;;;;;5050142;28;20039;-79
2023/03/15 05:41:08;;;;;;;9.02;4.13;;;0.10;99.50;;;;;;5051237;28;20025;-77
2023/03/15 05:43:33;;;;;;;13.95;4.72;;;0.10;99.40;;;;;;5048462;28;20044;-79
2023/03/15 05:45:59;;;;;;;13.95;4.38;;;0.00;99.40;;;;;;5048986;28;20025;-79
2023/03/15 05:48:24;;;;;;;8.75;3.92;;;0.00;99.40;;;;;;5044348;28;20108;-77
2023/03/15 05:50:50;;;;;;;16.75;4.18;;;0.00;99.40;;;;;;5051708;28;20458;-78
2023/03/15 05:53:15;;;;;;;19.25;5.70;;;-3276.70;99.50;;;;;;5053014;28;20037;-79
2023/03/15 05:55:41;;;;;;;15.15;5.57;;;-3276.70;99.50;;;;;;5054583;28;20040;-76
2023/03/15 05:58:06;;;;;;;42.15;11.27;;;-3276.60;99.50;;;;;;5048687;28;20028;-78
2023/03/15 06:00:32;;;;;;;43.63;12.50;;;-3276.60;99.50;;;;;;5046678;28;20245;-79
2023/03/15 06:02:58;;;;;;;35.70;10.38;;;-3276.50;99.50;;;;;;5050052;28;20041;-79
2023/03/15 06:05:23;;;;;;;24.38;7.25;;;-3276.60;99.60;;;;;;5042481;28;20447;-73
2023/03/15 06:07:49;;;;;;;20.90;6.28;;;-3276.60;99.60;;;;;;5054207;28;20044;-79
2023/03/15 06:10:14;;;;;;;14.10;5.20;;;-3276.60;99.60;;;;;;5056450;28;20029;-77
2023/03/15 06:12:40;;;;;;;24.83;9.48;;;-3276.50;99.60;;;;;;5053774;28;20436;-79
2023/03/15 06:15:07;;;;;;;38.80;12.05;;;-3276.50;99.60;;;;;;5042986;28;20458;-77
2023/03/15 06:17:32;;;;;;;27.27;8.43;;;-3276.50;99.60;;;;;;5042752;28;20025;-78
2023/03/15 06:19:58;;;;;;;18.10;6.22;;;-3276.50;99.60;;;;;;5040989;28;20448;-79
2023/03/15 06:22:23;;;;;;;13.10;5.35;;;-3276.50;99.60;;;;;;5049448;28;20040;-79
2023/03/15 06:24:49;;;;;;;15.77;4.93;;;-3276.50;99.70;;;;;;5053115;28;20033;-79
2023/03/15 06:27:14;;;;;;;18.85;5.60;;;-3276.50;99.70;;;;;;5049960;28;20033;-76
2023/03/15 06:29:40;;;;;;;19.58;6.45;;;-3276.50;99.70;;;;;;5043071;28;20051;-77
2023/03/15 06:32:05;;;;;;;15.10;6.10;;;-3276.50;99.80;;;;;;5044001;28;20029;-77
2023/03/15 06:34:31;;;;;;;20.52;6.35;;;-3276.60;99.80;;;;;;5047964;28;20041;-77
2023/03/15 06:36:56;;;;;;;18.15;5.25;;;-3276.60;99.80;;;;;;5043733;28;20060;-77
2023/03/15 06:39:22;;;;;;;16.95;5.18;;;-3276.70;99.80;;;;;;5049979;28;20037;-77
2023/03/15 06:41:48;;;;;;;16.67;5.03;;;-3276.70;99.80;;;;;;5045026;28;20454;-77
2023/03/15 06:44:13;;;;;;;11.65;5.68;;;0.00;99.70;;;;;;5049847;28;20045;-78
2023/03/15 06:46:39;;;;;;;11.77;5.68;;;0.00;99.70;;;;;;5043822;28;20029;-74
2023/03/15 06:49:05;;;;;;;13.75;4.53;;;0.20;99.80;;;;;;5044785;28;20081;-73
2023/03/15 06:51:30;;;;;;;16.95;6.00;;;0.40;99.70;;;;;;5047899;28;20044;-73
2023/03/15 06:53:56;;;;;;;12.32;4.30;;;0.70;99.70;;;;;;5045733;28;20049;-73
2023/03/15 06:56:21;;;;;;;18.48;5.28;;;0.90;99.40;;;;;;5047801;28;20033;-72
2023/03/15 06:58:47;;;;;;;11.65;4.35;;;1.10;99.30;;;;;;5048784;28;20038;-73
2023/03/15 07:01:13;;;;;;;13.90;4.50;;;1.10;99.10;;;;;;5042288;28;20094;-73
2023/03/15 07:03:39;;;;;;;13.45;3.85;;;0.90;98.60;;;;;;5048528;28;20045;-73
2023/03/15 07:06:04;;;;;;;7.95;3.28;;;0.90;98.70;;;;;;5046711;28;20021;-74
2023/03/15 07:08:30;;;;;;;11.15;3.08;;;0.90;98.80;;;;;;5048192;28;20045;-73
2023/03/15 07:10:56;;;;;;;11.73;2.83;;;0.90;98.80;;;;;;5044203;28;20063;-74
2023/03/15 07:13:22;;;;;;;13.35;3.38;;;1.00;98.40;;;;;;5048839;28;20029;-72
2023/03/15 07:15:52;;;;;;;11.35;2.97;;;1.00;97.60;;;;;;5045339;28;20028;-72
2023/03/15 07:18:18;;;;;;;18.90;3.85;;;0.90;97.60;;;;;;5045551;28;20415;-71
2023/03/15 07:20:43;;;;;;;11.82;3.63;;;0.90;97.80;;;;;;5041719;28;20037;-71
2023/03/15 07:23:09;;;;;;;14.32;4.40;;;1.00;98.10;;;;;;5040837;28;20042;-71
2023/03/15 07:25:34;;;;;;;10.10;4.07;;;1.10;98.10;;;;;;5050039;28;20088;-72
2023/03/15 07:27:59;;;;;;;11.82;3.90;;;1.30;98.20;;;;;;5048615;28;20055;-72
2023/03/15 07:30:25;;;;;;;13.60;4.25;;;1.40;98.00;;;;;;5045926;28;20041;-72
2023/03/15 07:32:50;;;;;;;11.77;3.90;;;1.60;98.00;;;;;;5048559;28;20047;-72
2023/03/15 07:35:17;;;;;;;17.17;4.18;;;1.70;97.80;;;;;;5044173;28;20382;-71
2023/03/15 07:37:42;;;;;;;11.40;3.20;;;1.70;97.40;;;;;;5044530;28;20087;-70
2023/03/15 07:40:08;;;;;;;9.63;2.83;;;1.70;97.50;;;;;;5044426;28;20037;-72
2023/03/15 07:42:35;;;;;;;8.18;3.00;;;1.40;97.20;;;;;;5048008;28;20075;-72
2023/03/15 07:45:02;;;;;;;13.55;2.58;;;1.30;97.30;;;;;;5047749;28;20041;-71
2023/03/15 07:47:28;;;;;;;6.97;2.50;;;1.10;97.50;;;;;;5045578;28;20035;-71
2023/03/15 07:49:53;;;;;;;8.43;2.65;;;1.00;97.80;;;;;;5040043;28;20572;-73
2023/03/15 07:52:20;;;;;;;8.18;2.72;;;1.00;98.00;;;;;;5046214;28;20076;-72
2023/03/15 07:54:46;;;;;;;9.05;2.78;;;0.80;98.10;;;;;;5046867;28;20024;-71
2023/03/15 07:57:11;;;;;;;9.32;3.15;;;0.80;98.30;;;;;;5043539;28;20036;-70
2023/03/15 07:59:37;;;;;;;9.70;2.90;;;0.80;98.40;;;;;;5045607;28;20036;-72
2023/03/15 08:02:02;;;;;;;13.73;2.83;;;0.90;98.50;;;;;;5039289;28;20045;-73
2023/03/15 08:04:28;;;;;;;12.30;3.28;;;1.00;98.50;;;;;;5047305;28;20370;-72
2023/03/15 08:06:53;;;;;;;8.43;3.03;;;1.10;98.60;;;;;;5040379;28;20033;-72
2023/03/15 08:09:19;;;;;;;10.18;2.97;;;1.10;98.60;;;;;;5049745;28;20462;-73
2023/03/15 08:11:44;;;;;;;7.35;2.78;;;1.20;98.60;;;;;;5052228;28;20033;-74
2023/03/15 08:14:09;;;;;;;9.95;3.97;;;1.60;98.70;;;;;;5045539;28;20489;-73
2023/03/15 08:16:35;;;;;;;11.90;3.83;;;1.50;98.20;;;;;;5053147;28;20064;-75
2023/03/15 08:19:00;;;;;;;10.75;3.65;;;1.60;98.30;;;;;;5053521;28;20037;-75
2023/03/15 08:21:26;;;;;;;8.48;3.67;;;1.60;98.00;;;;;;5050903;28;20104;-73
2023/03/15 08:23:51;;;;;;;12.43;3.90;;;1.80;98.00;;;;;;5046992;28;20056;-74
2023/03/15 08:26:17;;;;;;;13.73;3.55;;;2.00;97.90;;;;;;5045124;28;20040;-74
2023/03/15 08:28:42;;;;;;;14.48;4.28;;;2.00;97.50;;;;;;5053759;28;20060;-74
2023/03/15 08:31:08;;;;;;;10.48;3.45;;;2.20;97.50;;;;;;5052348;28;20040;-72
2023/03/15 08:33:34;;;;;;;8.82;3.30;;;2.60;97.20;;;;;;5046886;28;20033;-74
2023/03/15 08:36:00;;;;;;;8.00;3.15;;;3.00;96.80;;;;;;5050121;28;20056;-73
2023/03/15 08:38:26;;;;;;;11.85;3.53;;;3.30;95.40;;;;;;5050551;28;20549;-73
2023/03/15 08:40:58;;;;;;;6.10;3.05;;;3.40;93.80;;;;;;5050458;28;20033;-73
2023/03/15 08:43:23;;;;;;;6.53;2.45;;;3.30;93.20;;;;;;5051131;28;20076;-73
2023/03/15 08:45:49;;;;;;;11.32;2.60;;;3.00;93.10;;;;;;5051533;28;20433;-72
2023/03/15 08:48:15;;;;;;;5.05;2.17;;;2.70;93.00;;;;;;5050801;28;20124;-73
2023/03/15 08:50:41;;;;;;;7.40;2.20;;;2.70;93.60;;;;;;5046419;28;20116;-72
2023/03/15 08:53:07;;;;;;;5.80;1.95;;;2.50;93.40;;;;;;5044636;28;20094;-73
2023/03/15 08:55:33;;;;;;;4.35;1.60;;;2.30;93.40;;;;;;5052361;28;20473;-73
2023/03/15 08:58:00;;;;;;;4.35;1.88;;;2.30;93.50;;;;;;5043407;28;20508;-73
2023/03/15 09:00:26;;;;;;;14.80;2.75;;;2.40;94.10;;;;;;5041757;28;20551;-73
2023/03/15 09:02:52;;;;;;;7.55;1.60;;;2.60;93.10;;;;;;5046542;28;20029;-73
2023/03/15 09:05:18;;;;;;;7.15;2.00;;;2.90;92.70;;;;;;5044922;28;20090;-73
2023/03/15 09:07:44;;;;;;;9.73;2.30;;;3.10;92.30;;;;;;5049640;28;20035;-73
2023/03/15 09:10:14;;;;;;;6.25;1.77;;;3.40;92.10;;;;;;5036908;28;20507;-73
2023/03/15 09:12:41;;;;;;;9.48;2.20;;;3.70;92.20;;;;;;5044516;28;20037;-72
2023/03/15 09:15:07;;;;;;;8.02;2.25;;;3.60;91.30;;;;;;5049913;28;20036;-74
2023/03/15 09:17:33;;;;;;;10.98;2.10;;;3.60;90.70;;;;;;5046189;28;20079;-74
2023/03/15 09:19:58;;;;;;;7.57;1.70;;;3.60;89.90;;;;;;5042332;28;20474;-74
2023/03/15 09:22:24;;;;;;;7.82;2.17;;;4.00;90.70;;;;;;5044570;28;20045;-73
2023/03/15 09:24:51;;;;;;;5.18;1.38;;;4.50;91.00;;;;;;5043679;28;20037;-74
2023/03/15 09:27:17;;;;;;;8.23;1.70;;;4.30;88.90;;;;;;5034299;28;20064;-73
2023/03/15 09:29:42;;;;;;;11.05;1.88;;;4.30;89.50;;;;;;5040828;28;20722;-70
2023/03/15 09:32:08;;;;;;;5.32;2.08;;;4.60;89.30;;;;;;5046472;28;20385;-75
2023/03/15 09:34:34;;;;;;;7.25;1.67;;;4.80;89.20;;;;;;5049045;28;20033;-75
2023/03/15 09:37:00;;;;;;;6.80;2.00;;;4.90;86.30;;;;;;5041570;28;20098;-75
2023/03/15 09:39:25;;;;;;;8.63;1.90;;;5.10;87.10;;;;;;5049210;28;20294;-75
2023/03/15 09:41:59;;;;;;;3.13;1.38;;;5.10;86.00;;;;;;5046604;28;20034;-75
2023/03/15 09:44:59;;;;;;;5.18;1.65;;;5.10;85.60;;;;;;5041549;28;20389;-74
2023/03/15 09:47:38;;;;;;;5.43;1.55;;;5.10;85.90;;;;;;5049379;28;20502;-75
2023/03/15 09:50:30;;;;;;;8.70;2.20;;;5.10;84.90;;;;;;5047910;28;20033;-74
2023/03/15 09:53:22;;;;;;;8.90;1.58;;;5.10;83.90;;;;;;5042585;28;20036;-74
2023/03/15 09:55:49;;;;;;;6.63;1.58;;;5.30;84.20;;;;;;5045950;28;20044;-73
2023/03/15 09:58:31;;;;;;;13.02;2.40;;;5.70;85.00;;;;;;5043275;28;20363;-73
2023/03/15 10:01:03;;;;;;;7.88;2.42;;;5.90;82.20;;;;;;5046822;28;20033;-75
2023/03/15 10:03:36;;;;;;;11.43;2.22;;;5.50;80.30;;;;;;5045394;28;20110;-72
2023/03/15 10:06:12;;;;;;;7.53;1.85;;;5.70;81.00;;;;;;5046292;28;20075;-71
2023/03/15 10:08:37;;;;;;;6.10;1.40;;;5.80;81.10;;;;;;5049497;28;20041;-71
2023/03/15 10:11:16;;;;;;;5.28;1.30;;;6.30;81.90;;;;;;5047557;28;20370;-71
2023/03/15 10:14:03;;;;;;;8.68;1.65;;;6.10;78.90;;;;;;5046385;28;20037;-70
2023/03/15 10:16:49;;;;;;;8.68;1.60;;;6.00;79.20;;;;;;5047474;28;20028;-71
2023/03/15 10:19:53;;;;;;;6.55;1.60;;;5.70;79.50;;;;;;5043741;28;20550;-72
2023/03/15 10:22:33;;;;;;;9.25;1.52;;;5.60;79.00;;;;;;5050280;28;20061;-71
2023/03/15 10:25:11;;;;;;;7.10;1.20;;;5.10;79.90;;;;;;5043929;28;20045;-71
2023/03/15 10:27:46;;;;;;;1.95;0.82;;;4.90;80.10;;;;;;5048770;28;20035;-72
2023/03/15 10:30:16;;;;;;;3.90;0.65;;;4.00;84.50;;;;;;5042394;28;20475;-71
2023/03/15 10:32:44;;;;;;;2.40;0.60;;;3.00;89.40;;;;;;5039587;28;20144;-70
2023/03/15 10:35:16;;;;;;;4.43;0.82;;;2.50;92.40;;;;;;5044991;28;20033;-72
2023/03/15 10:37:42;;;;;;;6.13;1.10;;;2.40;93.90;;;;;;5041943;28;20063;-71
2023/03/15 10:40:15;;;;;;;7.38;1.02;;;2.30;94.40;;;;;;5044228;28;20485;-74
2023/03/15 10:42:45;;;;;;;2.45;0.90;;;2.20;94.50;;;;;;5044610;28;20035;-72
2023/03/15 10:45:23;;;;;;;7.82;1.10;;;2.30;94.70;;;;;;5041771;28;20032;-72
2023/03/15 10:47:50;;;;;;;5.10;1.05;;;2.30;94.70;;;;;;5049782;28;20473;-72
2023/03/15 10:50:28;;;;;;;3.97;1.00;;;2.20;94.50;;;;;;5045298;28;20080;-72
2023/03/15 10:52:56;;;;;;;4.57;1.30;;;2.20;94.60;;;;;;5049589;28;20020;-72
2023/03/15 10:55:29;;;;;;;8.48;1.27;;;2.20;94.20;;;;;;5048637;28;20045;-71
2023/03/15 10:57:56;;;;;;;4.28;1.10;;;2.80;94.20;;;;;;5050474;28;20381;-73
2023/03/15 11:00:28;;;;;;;5.57;1.38;;;3.50;93.50;;;;;;5047060;28;20039;-72
2023/03/15 11:03:18;;;;;;;7.55;1.23;;;3.90;92.40;;;;;;5038147;28;20087;-72
2023/03/15 11:05:50;;;;;;;8.02;1.00;;;4.30;90.80;;;;;;5043174;28;20474;-72
2023/03/15 11:08:18;;;;;;;4.72;1.08;;;4.60;89.90;;;;;;5042531;28;20047;-72
2023/03/15 11:10:55;;;;;;;7.35;1.40;;;4.60;87.80;;;;;;5046546;28;20029;-72
2023/03/15 11:13:23;;;;;;;6.60;1.00;;;4.50;87.80;;;;;;5042293;28;20044;-72
2023/03/15 11:15:52;;;;;;;5.93;1.13;;;4.80;88.10;;;;;;5044877;28;20061;-72
2023/03/15 11:18:25;;;;;;;7.18;1.20;;;4.90;86.50;;;;;;5041776;28;20120;-72
2023/03/15 11:20:53;;;;;;;7.57;1.17;;;5.10;86.30;;;;;;5039982;28;20041;-75
2023/03/15 11:23:26;;;;;;;7.97;1.20;;;5.00;86.10;;;;;;5042832;28;20483;-77
2023/03/15 11:25:53;;;;;;;2.70;0.95;;;5.30;86.40;;;;;;5051485;28;20057;-74
2023/03/15 11:28:25;;;;;;;6.65;1.55;;;5.60;86.30;;;;;;5049191;28;20068;-73
2023/03/15 11:30:51;;;;;;;8.55;1.20;;;5.80;86.10;;;;;;5047955;28;20025;-75
2023/03/15 11:34:01;;;;;;;3.63;0.82;;;6.00;84.80;;;;;;5046637;28;20040;-75
2023/03/15 11:36:30;;;;;;;4.97;1.02;;;5.80;83.20;;;;;;5045290;28;20817;-74
2023/03/15 11:38:59;;;;;;;3.55;1.17;;;6.00;82.60;;;;;;5038449;28;20033;-74
2023/03/15 11:41:46;;;;;;;3.10;0.98;;;5.70;81.50;;;;;;5046763;28;20112;-74
2023/03/15 11:44:32;;;;;;;3.72;0.90;;;5.90;82.10;;;;;;5045565;28;20044;-74
2023/03/15 11:47:09;;;;;;;6.82;0.90;;;5.70;80.60;;;;;;5048787;28;20048;-74
2023/03/15 11:49:41;;;;;;;6.22;0.95;;;5.80;80.70;;;;;;5052399;28;20033;-73
2023/03/15 11:52:07;;;;;;;4.35;0.82;;;5.80;79.50;;;;;;5046782;28;20051;-74
2023/03/15 11:54:32;;;;;;;4.43;0.98;;;5.90;78.80;;;;;;5047395;28;20458;-74
2023/03/15 11:57:27;;;;;;;2.42;0.70;;;5.80;78.30;;;;;;5051117;28;20477;-74
2023/03/15 11:59:52;;;;;;;5.05;0.93;;;6.10;78.20;;;;;;5048308;28;20024;-74
2023/03/15 12:02:18;;;;;;;3.92;0.95;;;6.20;78.00;;;;;;5045213;28;20142;-74
2023/03/15 12:04:45;;;;;;;5.15;0.80;;;5.80;78.40;;;;;;5048582;28;20032;-73
2023/03/15 12:07:23;;;;;;;7.70;1.15;;;5.90;78.30;;;;;;5051617;28;20485;-73
2023/03/15 12:09:54;;;;;;;5.50;0.90;;;5.90;79.20;;;;;;5052093;28;20362;-74
2023/03/15 12:12:23;;;;;;;3.03;0.88;;;5.60;77.30;;;;;;5052119;28;20119;-74
2023/03/15 12:15:26;;;;;;;4.13;0.90;;;5.50;76.70;;;;;;5047476;28;20036;-73
2023/03/15 12:17:57;;;;;;;4.65;1.20;;;5.60;80.20;;;;;;5048203;28;20033;-74
2023/03/15 12:21:00;;;;;;;3.28;1.00;;;6.10;78.70;;;;;;5042969;28;20083;-75
2023/03/15 12:23:35;;;;;;;9.52;1.13;;;6.30;75.00;;;;;;5039004;28;20057;-74
2023/03/15 12:26:01;;;;;;;4.07;0.70;;;6.60;73.40;;;;;;5044614;28;20040;-74
2023/03/15 12:28:29;;;;;;;2.08;0.70;;;5.50;76.30;;;;;;5044382;28;20121;-74
2023/03/15 12:31:00;;;;;;;3.13;0.65;;;5.20;79.50;;;;;;5041830;28;20025;-74
2023/03/15 12:33:27;;;;;;;2.00;0.52;;;4.40;82.20;;;;;;5060059;28;20592;-75
2023/03/15 12:36:06;;;;;;;2.90;0.50;;;4.10;84.20;;;;;;5047323;28;20438;-73
2023/03/15 12:38:38;;;;;;;1.48;0.32;;;3.70;85.40;;;;;;5035491;28;20112;-72
2023/03/15 12:41:40;;;;;;;4.22;0.65;;;3.40;88.50;;;;;;5050079;28;20029;-77
2023/03/15 12:44:20;;;;;;;0.30;0.30;;;3.20;90.40;;;;;;5041645;28;20029;-75
2023/03/15 12:46:46;;;;;;;0.45;0.40;;;3.30;90.80;;;;;;5050625;28;20477;-75
2023/03/15 12:49:26;;;;;;;2.03;0.47;;;3.40;90.80;;;;;;5044545;28;20036;-74
2023/03/15 12:52:14;;;;;;;1.00;0.30;;;4.30;90.20;;;;;;5041223;28;20459;-75
2023/03/15 12:54:59;;;;;;;0.85;0.30;;;4.50;86.60;;;;;;5049304;28;20029;-72
2023/03/15 12:57:34;;;;;;;1.80;0.32;;;4.80;85.70;;;;;;5049600;28;20029;-75